Time;durP1;ratioP1;P1;durP2;ratioP2;P2;SDS_P1;SDS_P2;PMS_P1;PMS_P2;Temp;Humidity;BMP_temperature;BMP_pressure;BME280_temperature;BME280_humidity;BME280_pressure;Samples;Min_cycle;Max_cycle;Signal;HPM_P1;HPM_P2
2021/07/26 00:03:23;;;;;;;5.13;3.40;;;;;;;19.74;96.01;95005.91;10566258;28;20065;-73
2021/07/26 00:08:24;;;;;;;3.85;3.40;;;;;;;19.65;96.62;94995.03;10566242;28;20023;-73
2021/07/26 00:13:25;;;;;;;3.33;2.92;;;;;;;19.58;98.27;94981.09;10566258;28;20865;-73
2021/07/26 00:18:29;;;;;;;8.07;3.42;;;;;;;19.51;99.25;94986.22;10565533;28;20030;-73
2021/07/26 00:23:30;;;;;;;4.45;2.92;;;;;;;19.42;100.00;94980.78;10560007;28;20067;-73
2021/07/26 00:28:30;;;;;;;6.00;3.75;;;;;;;19.38;100.00;94968.94;10527025;28;20036;-73
2021/07/26 00:34:08;;;;;;;8.67;4.50;;;;;;;19.28;100.00;94979.06;10531786;28;20043;-73
2021/07/26 00:39:10;;;;;;;4.45;2.85;;;;;;;19.27;100.00;94993.81;10532134;28;20269;-73
2021/07/26 00:44:11;;;;;;;4.65;3.10;;;;;;;19.28;100.00;94987.25;10531354;28;20028;-73
2021/07/26 00:49:14;;;;;;;7.55;3.20;;;;;;;19.26;100.00;94992.19;10531334;28;20032;-73
2021/07/26 00:54:18;;;;;;;6.90;3.58;;;;;;;19.26;100.00;95002.31;10530114;28;20442;-73
2021/07/26 00:59:19;;;;;;;6.38;3.92;;;;;;;19.30;100.00;95000.53;10531259;28;20030;-72
2021/07/26 01:04:19;;;;;;;4.75;3.63;;;;;;;19.25;100.00;94985.13;10512732;28;20384;-73
2021/07/26 01:09:20;;;;;;;5.70;2.40;;;;;;;19.19;100.00;94986.44;10529899;28;20089;-73
2021/07/26 01:14:20;;;;;;;4.75;3.05;;;;;;;19.08;100.00;94985.94;10547954;28;20338;-73
2021/07/26 01:19:21;;;;;;;7.90;4.93;;;;;;;18.96;100.00;94983.06;10549967;28;20019;-73
2021/07/26 01:24:21;;;;;;;7.17;3.53;;;;;;;18.91;100.00;94975.88;10581761;27;20502;-73
2021/07/26 01:29:22;;;;;;;5.93;3.57;;;;;;;18.81;100.00;94969.91;10554316;28;20034;-72
2021/07/26 01:34:23;;;;;;;4.95;3.05;;;;;;;18.74;100.00;94989.44;10571998;28;20272;-72
2021/07/26 01:39:23;;;;;;;3.57;3.13;;;;;;;18.73;100.00;94979.69;10570551;28;20034;-72
2021/07/26 01:44:24;;;;;;;6.67;3.20;;;;;;;18.69;100.00;94978.72;10570815;28;20329;-72
2021/07/26 01:50:04;;;;;;;4.22;3.42;;;;;;;18.71;100.00;94990.91;10571363;28;20031;-72
2021/07/26 01:55:05;;;;;;;4.70;3.10;;;;;;;18.66;100.00;95001.94;10571046;28;20024;-72
2021/07/26 02:00:06;;;;;;;5.47;3.42;;;;;;;18.68;100.00;95001.59;10570097;28;20020;-73
2021/07/26 02:05:07;;;;;;;6.20;3.50;;;;;;;18.76;100.00;95015.22;10570028;28;20015;-73
2021/07/26 02:10:07;;;;;;;7.32;2.95;;;;;;;18.70;100.00;95005.63;10570141;28;20027;-73
2021/07/26 02:15:08;;;;;;;5.57;3.10;;;;;;;18.65;100.00;95003.03;10551194;28;20058;-73
2021/07/26 02:20:09;;;;;;;6.20;3.00;;;;;;;18.56;100.00;95024.00;10569593;28;20034;-73
2021/07/26 02:25:11;;;;;;;6.00;2.67;;;;;;;18.53;100.00;95030.06;10549823;28;20032;-73
2021/07/26 02:30:12;;;;;;;4.25;3.17;;;;;;;18.49;100.00;95034.53;10526629;28;20028;-72
2021/07/26 02:35:12;;;;;;;6.53;2.92;;;;;;;18.32;100.00;95035.28;10526276;28;20027;-73
2021/07/26 02:40:13;;;;;;;8.73;3.78;;;;;;;18.28;100.00;95046.81;10526307;28;20020;-73
2021/07/26 02:45:13;;;;;;;6.50;3.38;;;;;;;18.28;100.00;95052.25;10525273;28;20032;-73
2021/07/26 02:50:14;;;;;;;9.05;3.50;;;;;;;18.13;100.00;95058.13;10525736;28;20501;-72
2021/07/26 02:55:14;;;;;;;3.20;2.90;;;;;;;18.10;100.00;95045.16;10525743;28;20489;-73
2021/07/26 03:00:15;;;;;;;5.13;2.93;;;;;;;18.05;100.00;95037.91;10525370;28;20371;-73
2021/07/26 03:05:15;;;;;;;10.65;3.53;;;;;;;17.97;100.00;95040.59;10507736;28;20111;-73
2021/07/26 03:10:16;;;;;;;6.97;3.33;;;;;;;17.87;100.00;95047.06;10525371;28;20028;-73
2021/07/26 03:15:18;;;;;;;3.67;2.90;;;;;;;17.81;100.00;95043.69;10525145;28;20073;-72
2021/07/26 03:20:19;;;;;;;4.10;2.88;;;;;;;17.72;100.00;95040.09;10525464;28;20031;-73
2021/07/26 03:25:20;;;;;;;8.40;3.63;;;;;;;17.75;100.00;95059.31;10525147;28;20530;-73
2021/07/26 03:30:21;;;;;;;8.63;3.33;;;;;;;17.68;100.00;95060.88;10507677;28;20266;-73
2021/07/26 03:35:23;;;;;;;7.43;3.53;;;;;;;17.57;100.00;95066.56;10525992;28;20395;-72
2021/07/26 03:40:23;;;;;;;5.47;4.07;;;;;;;17.56;100.00;95062.22;10524682;28;20020;-72
2021/07/26 03:45:24;;;;;;;5.68;3.13;;;;;;;17.71;100.00;95063.78;10524294;28;20039;-73
2021/07/26 03:50:26;;;;;;;4.95;3.13;;;;;;;17.73;100.00;95072.41;10525918;28;20035;-72
2021/07/26 03:55:31;;;;;;;6.78;2.95;;;;;;;17.85;100.00;95071.84;10507177;28;20047;-73
2021/07/26 04:00:32;;;;;;;9.20;3.60;;;;;;;17.83;100.00;95089.59;10525141;28;20036;-73
2021/07/26 04:05:39;;;;;;;5.20;3.17;;;;;;;17.91;100.00;95084.22;10532675;28;20064;-73
2021/07/26 04:10:43;;;;;;;3.97;3.10;;;;;;;18.06;100.00;95077.59;10547677;28;20054;-72
2021/07/26 04:15:45;;;;;;;10.05;3.75;;;;;;;18.22;100.00;95063.59;10539975;28;20083;-73
2021/07/26 04:20:46;;;;;;;10.95;3.45;;;;;;;18.39;100.00;95071.81;10533555;28;20020;-72
2021/07/26 04:25:48;;;;;;;5.93;2.90;;;;;;;18.48;100.00;95077.28;10572853;27;20037;-72
2021/07/26 04:30:49;;;;;;;3.67;2.58;;;;;;;18.56;100.00;95078.47;10592217;27;20031;-72
2021/07/26 04:35:49;;;;;;;6.53;3.30;;;;;;;18.45;100.00;95077.94;10585395;27;20126;-72
2021/07/26 04:40:49;;;;;;;5.50;3.47;;;;;;;18.67;100.00;95078.94;10570531;28;20284;-73
2021/07/26 04:45:50;;;;;;;9.27;2.97;;;;;;;18.99;100.00;95080.50;10574741;27;20288;-72
2021/07/26 04:50:50;;;;;;;5.50;2.58;;;;;;;19.45;100.00;95090.00;10579763;27;20031;-72
2021/07/26 04:55:51;;;;;;;7.97;3.13;;;;;;;19.88;100.00;95085.63;10572347;28;20075;-72
2021/07/26 05:00:51;;;;;;;11.10;3.30;;;;;;;20.14;100.00;95098.41;10579896;27;20265;-72
2021/07/26 05:05:52;;;;;;;7.40;2.83;;;;;;;20.69;100.00;95098.72;10578768;27;20774;-72
2021/07/26 05:10:52;;;;;;;9.57;3.30;;;;;;;21.27;93.93;95099.03;10592205;27;20276;-72
2021/07/26 05:15:52;;;;;;;8.57;3.40;;;;;;;21.74;90.16;95096.09;10612392;27;20019;-73
2021/07/26 05:20:52;;;;;;;4.03;2.60;;;;;;;22.28;87.86;95095.22;10613381;27;20023;-73
2021/07/26 05:25:53;;;;;;;6.10;2.97;;;;;;;22.50;82.95;95096.00;10594291;27;20062;-73
2021/07/26 05:30:53;;;;;;;14.53;4.60;;;;;;;22.72;82.85;95089.28;10613289;27;20821;-73
2021/07/26 05:35:54;;;;;;;6.60;2.57;;;;;;;22.90;80.44;95098.06;10613158;27;20099;-73
2021/07/26 05:40:57;;;;;;;5.78;2.40;;;;;;;22.99;80.60;95101.47;10613081;27;20027;-73
2021/07/26 05:45:57;;;;;;;2.83;2.47;;;;;;;23.27;76.71;95110.94;10613707;27;20815;-73
2021/07/26 05:50:57;;;;;;;8.90;2.23;;;;;;;23.68;74.51;95104.34;10612876;27;20027;-73
2021/07/26 05:55:58;;;;;;;5.90;2.23;;;;;;;24.16;70.20;95111.94;10612646;27;20039;-73
2021/07/26 06:01:10;;;;;;;5.30;2.83;;;;;;;25.04;66.85;95109.06;10612816;27;20023;-73
2021/07/26 06:06:11;;;;;;;6.68;2.30;;;;;;;26.14;59.76;95110.25;10613086;27;20268;-73
2021/07/26 06:11:11;;;;;;;11.03;2.83;;;;;;;26.52;56.81;95097.56;10612048;27;20023;-73
2021/07/26 06:16:11;;;;;;;8.93;3.10;;;;;;;27.23;55.62;95108.97;10612221;27;20280;-74
2021/07/26 06:21:12;;;;;;;6.30;2.13;;;;;;;27.72;51.24;95101.75;10611664;27;20030;-74
2021/07/26 06:26:12;;;;;;;7.22;2.10;;;;;;;28.33;49.19;95098.13;10611038;27;20122;-74
2021/07/26 06:31:13;;;;;;;6.17;2.20;;;;;;;29.06;44.84;95101.19;10611537;27;20072;-74
2021/07/26 06:36:13;;;;;;;7.50;2.10;;;;;;;29.67;44.61;95098.81;10611423;27;20502;-74
2021/07/26 06:41:13;;;;;;;8.43;2.10;;;;;;;30.53;40.95;95097.56;10611404;27;20065;-74
2021/07/26 06:46:14;;;;;;;7.00;3.07;;;;;;;30.93;39.60;95092.84;10610762;27;20031;-73
2021/07/26 06:51:15;;;;;;;8.65;1.70;;;;;;;31.34;38.61;95088.88;10610585;27;20074;-73
2021/07/26 06:56:16;;;;;;;14.80;2.55;;;;;;;31.71;38.59;95087.63;10627190;27;20056;-74
2021/07/26 07:01:17;;;;;;;6.47;2.80;;;;;;;32.16;37.46;95082.28;10610404;27;20030;-73
2021/07/26 07:06:20;;;;;;;11.60;2.92;;;;;;;32.56;36.75;95070.94;10610258;27;20051;-73
2021/07/26 07:11:21;;;;;;;8.77;2.92;;;;;;;32.00;37.05;95070.84;10610248;27;20039;-73
2021/07/26 07:16:22;;;;;;;8.35;2.83;;;;;;;32.24;37.45;95077.47;10609683;27;20542;-73
2021/07/26 07:21:26;;;;;;;11.50;3.88;;;;;;;32.92;35.56;95083.78;10609534;27;20055;-73
2021/07/26 07:26:27;;;;;;;6.32;3.22;;;;;;;33.12;34.31;95073.69;10609134;27;20099;-73
2021/07/26 07:31:28;;;;;;;7.40;2.58;;;;;;;33.30;34.18;95069.97;10609704;27;20027;-73
2021/07/26 07:36:28;;;;;;;9.20;2.55;;;;;;;33.62;34.31;95072.41;10609551;27;20031;-73
2021/07/26 07:41:29;;;;;;;5.63;2.80;;;;;;;34.58;33.88;95075.19;10608333;27;20019;-73
2021/07/26 07:46:29;;;;;;;11.90;3.00;;;;;;;35.09;32.63;95072.41;10609728;27;20031;-74
2021/07/26 07:51:29;;;;;;;7.20;3.33;;;;;;;35.58;31.53;95071.16;10608567;27;20280;-74
2021/07/26 07:56:32;;;;;;;9.23;2.90;;;;;;;35.73;30.44;95068.91;10608590;28;20034;-74
2021/07/26 08:01:33;;;;;;;4.80;2.47;;;;;;;35.58;30.07;95082.34;10609019;27;20190;-74
2021/07/26 08:06:35;;;;;;;7.83;3.00;;;;;;;33.96;32.31;95066.06;10608326;28;20023;-73
2021/07/26 08:11:35;;;;;;;7.45;3.13;;;;;;;35.14;31.47;95068.34;10608695;28;20019;-73
2021/07/26 08:16:37;;;;;;;4.60;2.43;;;;;;;35.96;29.42;95067.25;10608835;28;20034;-74
2021/07/26 08:21:38;;;;;;;7.35;2.42;;;;;;;35.82;29.40;95057.97;10609233;27;20043;-74
2021/07/26 08:26:38;;;;;;;7.60;2.72;;;;;;;35.73;29.05;95052.91;10591782;28;20039;-74
2021/07/26 08:31:39;;;;;;;14.10;2.77;;;;;;;36.69;27.59;95050.50;10610129;28;20019;-74
2021/07/26 08:36:39;;;;;;;4.57;2.77;;;;;;;37.36;26.53;95040.88;10609743;28;20159;-74
2021/07/26 08:41:42;;;;;;;4.90;2.40;;;;;;;37.31;26.31;95038.59;10610156;28;20027;-73
2021/07/26 08:46:44;;;;;;;11.00;2.97;;;;;;;37.81;27.90;95037.22;10625103;27;20091;-73
2021/07/26 08:51:45;;;;;;;7.47;2.88;;;;;;;37.65;26.44;95035.25;10614280;27;20090;-73
2021/07/26 08:56:46;;;;;;;8.48;4.07;;;;;;;39.92;24.93;95039.25;10616777;27;20030;-74
2021/07/26 09:01:51;;;;;;;12.27;4.53;;;;;;;40.25;24.78;95036.03;10616858;27;20053;-73
2021/07/26 09:06:55;;;;;;;7.93;4.13;;;;;;;40.91;24.22;95032.25;10616612;27;20031;-74
2021/07/26 09:11:56;;;;;;;5.85;3.35;;;;;;;40.70;22.60;95027.50;10632213;27;20023;-74
2021/07/26 09:16:56;;;;;;;9.53;3.70;;;;;;;41.24;22.71;95023.25;10616647;27;20034;-74
2021/07/26 09:21:57;;;;;;;7.55;3.40;;;;;;;41.72;22.33;95022.03;10597943;27;20031;-74
2021/07/26 09:27:26;;;;;;;9.50;3.63;;;;;;;42.30;22.03;95008.94;10616284;27;20842;-74
2021/07/26 09:32:37;;;;;;;9.60;3.45;;;;;;;42.34;21.62;95003.88;10597510;27;20099;-74
2021/07/26 09:37:37;;;;;;;7.60;2.95;;;;;;;42.64;21.45;95007.69;10615746;27;20175;-74
2021/07/26 09:42:38;;;;;;;20.60;4.90;;;;;;;43.13;21.25;95014.19;10615683;27;20061;-74
2021/07/26 09:47:38;;;;;;;7.90;3.00;;;;;;;43.04;21.23;95008.59;10614771;27;20279;-74
2021/07/26 09:52:38;;;;;;;5.73;2.70;;;;;;;43.34;21.14;95014.34;10615100;27;20379;-74
2021/07/26 09:57:42;;;;;;;10.20;3.40;;;;;;;42.51;21.56;95007.88;10614650;27;20409;-74
2021/07/26 10:02:43;;;;;;;10.93;3.40;;;;;;;43.17;21.47;95002.69;10613354;27;20288;-74
2021/07/26 10:07:44;;;;;;;10.93;4.45;;;;;;;43.32;20.59;95012.00;10614899;27;20450;-74
2021/07/26 10:12:45;;;;;;;11.68;3.67;;;;;;;42.44;21.31;95007.44;10614186;27;20062;-74
2021/07/26 10:17:47;;;;;;;10.00;3.72;;;;;;;43.26;20.50;95005.47;10613819;27;20437;-73
2021/07/26 10:23:09;;;;;;;7.65;4.13;;;;;;;43.93;20.17;94999.59;10614297;27;20044;-73
2021/07/26 10:28:16;;;;;;;7.95;3.95;;;;;;;43.17;20.25;94999.88;10570613;28;20052;-73
2021/07/26 10:33:16;;;;;;;6.63;3.33;;;;;;;44.52;19.86;94992.31;10571385;28;20429;-74
2021/07/26 10:38:38;;;;;;;8.13;3.17;;;;;;;44.24;20.43;94991.81;10570498;28;20027;-74
2021/07/26 10:43:58;;;;;;;4.82;2.88;;;;;;;45.23;19.10;94975.28;10570088;28;20556;-73
2021/07/26 10:48:58;;;;;;;6.03;2.85;;;;;;;44.67;19.52;94981.75;10570530;28;20031;-74
2021/07/26 10:53:58;;;;;;;3.60;2.70;;;;;;;45.86;18.45;94977.56;10570691;28;20022;-74
2021/07/26 10:59:01;;;;;;;5.87;3.17;;;;;;;45.55;18.11;94986.75;10569925;28;20130;-74
2021/07/26 11:04:01;;;;;;;4.30;2.53;;;;;;;45.90;18.24;94971.66;10601225;28;20023;-72
2021/07/26 11:09:21;;;;;;;5.10;2.63;;;;;;;46.46;17.44;94968.50;10572052;28;20035;-74
2021/07/26 11:14:21;;;;;;;6.03;3.17;;;;;;;42.33;19.83;94972.03;10569361;28;20024;-74
2021/07/26 11:19:30;;;;;;;7.33;3.00;;;;;;;38.74;23.38;94965.44;10569249;28;20024;-74
2021/07/26 11:24:55;;;;;;;5.15;3.17;;;;;;;37.57;24.97;94961.75;10582988;27;20114;-73
2021/07/26 11:29:56;;;;;;;6.60;4.82;;;;;;;36.47;25.57;94969.81;10611209;27;20023;-73
2021/07/26 11:34:58;;;;;;;21.40;11.73;;;;;;;35.23;27.36;94965.19;10611047;27;20046;-74
2021/07/26 11:40:00;;;;;;;4.40;3.13;;;;;;;35.01;27.88;94964.84;10611309;27;20019;-74
2021/07/26 11:45:01;;;;;;;13.40;3.60;;;;;;;34.96;28.89;94964.50;10611137;27;20034;-73
2021/07/26 11:50:05;;;;;;;5.57;3.70;;;;;;;34.68;28.22;94947.06;10610609;27;20028;-73
2021/07/26 11:55:12;;;;;;;6.65;3.83;;;;;;;34.17;28.82;94944.25;10611960;27;20034;-73
2021/07/26 12:00:13;;;;;;;8.35;4.28;;;;;;;33.62;29.16;94943.44;10611867;27;20058;-73
2021/07/26 12:05:14;;;;;;;5.97;3.60;;;;;;;33.67;29.27;94934.56;10610178;28;20409;-73
2021/07/26 12:10:15;;;;;;;7.47;3.58;;;;;;;33.52;30.04;94934.78;10610794;28;20059;-73
2021/07/26 12:15:26;;;;;;;10.07;4.97;;;;;;;33.09;30.38;94934.47;10610174;28;20102;-73
2021/07/26 12:20:26;;;;;;;9.00;4.60;;;;;;;33.37;30.92;94942.53;10610272;28;20565;-73
2021/07/26 12:25:26;;;;;;;15.30;4.83;;;;;;;33.12;31.34;94930.88;10613011;27;20054;-73
2021/07/26 12:30:53;;;;;;;10.10;3.93;;;;;;;33.29;30.08;94938.25;10617816;27;20260;-73
2021/07/26 12:36:13;;;;;;;9.00;4.70;;;;;;;33.21;31.10;94920.81;10615112;27;20281;-72
2021/07/26 12:41:14;;;;;;;16.15;5.53;;;;;;;33.32;30.61;94912.31;10618375;27;20034;-72
2021/07/26 12:46:14;;;;;;;8.10;4.20;;;;;;;33.22;29.91;94910.44;10617459;27;20031;-73
2021/07/26 12:51:14;;;;;;;16.37;4.20;;;;;;;33.04;29.56;94917.03;10616940;27;20031;-72
2021/07/26 12:56:15;;;;;;;12.63;4.30;;;;;;;33.18;29.49;94916.06;10617428;27;20130;-72
2021/07/26 13:01:15;;;;;;;11.23;4.30;;;;;;;32.97;29.71;94911.53;10616971;27;20035;-72
2021/07/26 13:06:16;;;;;;;7.13;4.10;;;;;;;32.81;30.58;94914.09;10616952;27;20393;-75
2021/07/26 13:11:16;;;;;;;7.27;4.70;;;;;;;32.84;30.05;94918.84;10617072;27;20027;-73
2021/07/26 13:16:18;;;;;;;11.17;4.77;;;;;;;32.71;30.43;94916.56;10598163;27;20268;-73
2021/07/26 13:21:19;;;;;;;7.75;4.20;;;;;;;32.85;31.00;94915.63;10616588;27;20031;-73
2021/07/26 13:26:20;;;;;;;13.13;4.63;;;;;;;32.65;30.76;94909.06;10616103;27;20096;-73
2021/07/26 13:31:20;;;;;;;16.05;4.20;;;;;;;32.40;30.66;94904.50;10597429;27;20398;-73
2021/07/26 13:36:21;;;;;;;12.43;4.67;;;;;;;32.30;31.30;94908.97;10614729;27;20025;-73
2021/07/26 13:41:21;;;;;;;10.83;4.90;;;;;;;32.36;31.56;94901.78;10615489;27;20034;-73
2021/07/26 13:46:21;;;;;;;19.07;5.07;;;;;;;32.43;31.58;94903.72;10615070;27;20035;-73
2021/07/26 13:51:22;;;;;;;10.47;4.67;;;;;;;32.31;31.15;94899.44;10615438;27;20023;-73
2021/07/26 13:56:22;;;;;;;9.77;5.00;;;;;;;32.32;29.50;94900.19;10614748;27;20150;-73
2021/07/26 14:01:22;;;;;;;11.13;4.80;;;;;;;32.38;29.28;94884.66;10614802;27;20027;-73
2021/07/26 14:06:23;;;;;;;14.17;5.70;;;;;;;32.38;30.26;94891.00;10596179;27;20027;-73
2021/07/26 14:11:23;;;;;;;10.77;4.93;;;;;;;32.45;30.33;94895.72;10595882;27;20019;-73
2021/07/26 14:16:23;;;;;;;11.43;5.57;;;;;;;32.45;29.69;94883.81;10614623;27;20023;-73
2021/07/26 14:21:24;;;;;;;12.33;5.63;;;;;;;32.39;30.63;94889.03;10613175;27;20102;-73
2021/07/26 14:26:25;;;;;;;12.20;5.63;;;;;;;32.37;29.94;94883.09;10613910;27;20076;-73
2021/07/26 14:31:25;;;;;;;11.57;5.43;;;;;;;32.37;30.11;94881.09;10613259;27;20019;-73
2021/07/26 14:36:27;;;;;;;16.60;5.67;;;;;;;32.19;29.59;94884.03;10612708;27;20115;-73
2021/07/26 14:41:28;;;;;;;17.35;5.38;;;;;;;32.19;30.31;94877.69;10613025;27;20500;-73
2021/07/26 14:46:29;;;;;;;22.92;5.95;;;;;;;32.25;29.66;94883.59;10612524;27;20034;-73
2021/07/26 14:51:31;;;;;;;12.13;5.03;;;;;;;32.18;30.42;94882.47;10612466;27;20490;-74
2021/07/26 14:56:33;;;;;;;10.40;4.72;;;;;;;32.10;30.58;94878.13;10543781;27;20391;-74
2021/07/26 15:01:34;;;;;;;6.65;4.20;;;;;;;32.02;31.43;94874.59;10527064;28;20024;-74
2021/07/26 15:06:35;;;;;;;12.55;5.05;;;;;;;31.98;32.28;94879.41;10527145;28;20038;-74
2021/07/26 15:11:35;;;;;;;12.27;5.10;;;;;;;31.93;31.70;94865.16;10527140;28;20028;-74
2021/07/26 15:16:35;;;;;;;8.47;4.97;;;;;;;31.86;31.91;94877.91;10543111;28;20032;-74
2021/07/26 15:21:36;;;;;;;14.47;5.90;;;;;;;31.82;32.04;94874.38;10526658;28;20027;-74
2021/07/26 15:26:36;;;;;;;11.67;5.67;;;;;;;31.79;31.58;94874.38;10526546;28;20036;-73
2021/07/26 15:31:39;;;;;;;23.40;5.67;;;;;;;31.67;33.12;94868.09;10526396;28;20016;-73
2021/07/26 15:36:40;;;;;;;12.45;5.78;;;;;;;31.63;33.46;94875.66;10526485;28;20266;-73
2021/07/26 15:41:42;;;;;;;11.80;4.90;;;;;;;31.59;32.63;94872.13;10526405;28;20016;-73
2021/07/26 15:46:42;;;;;;;9.50;4.85;;;;;;;31.56;31.91;94881.25;10525943;28;20039;-73
2021/07/26 15:51:43;;;;;;;11.68;5.05;;;;;;;31.46;32.27;94879.34;10541287;28;20024;-73
2021/07/26 15:56:43;;;;;;;14.27;5.27;;;;;;;31.48;32.38;94883.28;10525858;28;20020;-73
2021/07/26 16:01:44;;;;;;;12.35;4.88;;;;;;;31.33;32.33;94888.13;10525171;28;20028;-74
2021/07/26 16:06:44;;;;;;;16.13;6.23;;;;;;;31.29;31.87;94889.34;10525749;28;20035;-74
2021/07/26 16:11:44;;;;;;;9.03;6.07;;;;;;;31.20;32.37;94900.88;10525813;28;20020;-74
2021/07/26 16:16:45;;;;;;;11.10;5.13;;;;;;;31.18;33.10;94892.94;10525231;28;20039;-76
2021/07/26 16:21:45;;;;;;;13.93;6.40;;;;;;;31.13;32.97;94900.91;10526019;28;20028;-75
2021/07/26 16:26:45;;;;;;;16.37;5.00;;;;;;;31.01;32.69;94904.91;10526067;28;20044;-75
2021/07/26 16:31:46;;;;;;;12.93;5.50;;;;;;;30.87;33.29;94914.06;10525524;28;20021;-75
2021/07/26 16:36:46;;;;;;;13.88;5.50;;;;;;;30.84;33.62;94917.63;10524783;28;20482;-74
2021/07/26 16:41:47;;;;;;;12.97;5.20;;;;;;;30.78;33.71;94919.22;10555938;28;20036;-74
2021/07/26 16:46:50;;;;;;;6.60;4.50;;;;;;;30.49;39.54;94916.50;10570870;28;20035;-74
2021/07/26 16:51:51;;;;;;;7.50;4.57;;;;;;;30.29;42.16;94935.50;10578233;28;20030;-75
2021/07/26 16:56:52;;;;;;;5.63;4.18;;;;;;;30.12;44.50;94934.31;10575626;28;20023;-74
2021/07/26 17:01:52;;;;;;;16.53;5.13;;;;;;;30.01;45.98;94939.84;10592618;28;20050;-74
2021/07/26 17:06:52;;;;;;;10.07;5.23;;;;;;;29.90;46.70;94947.34;10568104;28;20273;-73
2021/07/26 17:11:53;;;;;;;10.83;4.37;;;;;;;29.59;47.99;94955.94;10583167;27;20277;-73
2021/07/26 17:16:53;;;;;;;6.32;4.43;;;;;;;29.32;49.73;94945.19;10583024;27;20384;-73
2021/07/26 17:21:54;;;;;;;11.13;4.70;;;;;;;29.03;53.46;94949.75;10541146;28;20842;-73
2021/07/26 17:26:54;;;;;;;8.47;4.53;;;;;;;28.97;55.39;94954.88;10508098;28;20089;-73
2021/07/26 17:31:54;;;;;;;9.17;4.93;;;;;;;28.71;57.37;94960.66;10574563;27;20346;-73
2021/07/26 17:36:57;;;;;;;13.50;4.80;;;;;;;28.53;58.52;94957.72;10580387;27;20032;-74
2021/07/26 17:41:58;;;;;;;9.85;5.40;;;;;;;28.41;59.48;94962.38;10564047;27;20389;-74
2021/07/26 17:46:58;;;;;;;7.68;4.82;;;;;;;28.27;59.93;94965.00;10558759;27;20027;-73
2021/07/26 17:51:59;;;;;;;9.82;5.38;;;;;;;28.21;58.72;94969.31;10572677;27;20035;-73
2021/07/26 17:57:00;;;;;;;12.07;5.13;;;;;;;28.10;58.84;94961.75;10570884;28;20030;-73
2021/07/26 18:02:01;;;;;;;14.07;5.23;;;;;;;28.01;58.08;94977.81;10572402;28;20031;-74
2021/07/26 18:07:08;;;;;;;10.85;5.50;;;;;;;27.95;58.69;94971.81;10571998;27;20023;-73
2021/07/26 18:12:08;;;;;;;;;;;;;;;27.80;59.86;94983.91;10613109;27;20023;-74
2021/07/26 18:17:09;;;;;;;8.00;5.23;;;;;;;27.77;60.16;94992.94;10613454;27;19907;-74
2021/07/26 18:22:10;;;;;;;13.17;4.83;;;;;;;27.69;61.06;94986.53;10592933;27;20514;-72
2021/07/26 18:27:10;;;;;;;11.13;5.20;;;;;;;27.49;63.84;94998.94;10589803;27;20088;-74
2021/07/26 18:32:11;;;;;;;12.47;5.10;;;;;;;27.41;65.46;95004.38;10569288;28;20020;-74
2021/07/26 18:37:12;;;;;;;14.00;5.72;;;;;;;27.38;65.90;95007.06;10569161;28;20033;-74
2021/07/26 18:42:14;;;;;;;13.50;6.00;;;;;;;27.21;67.64;95023.00;10570344;28;20037;-73
2021/07/26 18:47:14;;;;;;;18.60;6.65;;;;;;;27.02;68.55;95032.19;10570701;28;20032;-73
2021/07/26 18:52:15;;;;;;;12.93;5.93;;;;;;;26.98;70.13;95027.81;10569266;28;20031;-73
2021/07/26 18:57:15;;;;;;;11.57;6.65;;;;;;;26.81;70.04;95029.13;10577731;27;20049;-74
2021/07/26 19:02:16;;;;;;;14.43;6.40;;;;;;;26.57;72.27;95028.34;10611934;27;20120;-74
2021/07/26 19:07:16;;;;;;;12.43;6.90;;;;;;;26.39;75.02;95042.63;10576595;27;20027;-73
2021/07/26 19:12:17;;;;;;;15.90;6.72;;;;;;;26.28;77.27;95049.91;10590461;27;20035;-73
2021/07/26 19:17:17;;;;;;;11.25;6.75;;;;;;;26.00;81.55;95052.91;10563538;27;20019;-76
2021/07/26 19:22:18;;;;;;;9.97;7.00;;;;;;;25.79;84.83;95048.59;10581009;27;20841;-74
2021/07/26 19:27:18;;;;;;;8.25;6.38;;;;;;;25.59;85.99;95050.53;10579526;27;20398;-74
2021/07/26 19:32:18;;;;;;;10.50;6.72;;;;;;;25.37;87.34;95043.81;10570808;27;20039;-73
2021/07/26 19:37:19;;;;;;;16.30;7.30;;;;;;;25.41;85.72;95042.72;10585023;27;20094;-74
2021/07/26 19:42:19;;;;;;;12.57;7.90;;;;;;;25.20;82.89;95039.47;10586400;27;20031;-73
2021/07/26 19:47:20;;;;;;;9.70;6.93;;;;;;;24.97;85.01;95040.16;10611324;27;20034;-73
2021/07/26 19:52:20;;;;;;;10.80;7.30;;;;;;;24.96;81.05;95035.81;10596720;27;20093;-73
2021/07/26 19:57:21;;;;;;;11.47;6.50;;;;;;;24.89;78.89;95035.66;10583624;27;20039;-73
2021/07/26 20:02:21;;;;;;;10.47;6.43;;;;;;;24.86;77.64;95044.63;10575624;28;20462;-73
2021/07/26 20:07:22;;;;;;;13.20;6.43;;;;;;;24.80;78.64;95038.59;10575183;28;20178;-73
2021/07/26 20:12:26;;;;;;;12.13;6.28;;;;;;;24.74;80.13;95045.50;10601049;28;20027;-73
2021/07/26 20:17:27;;;;;;;10.43;5.80;;;;;;;24.58;85.28;95046.28;10608638;28;20779;-73
2021/07/26 20:22:27;;;;;;;10.05;6.25;;;;;;;24.53;84.75;95045.75;10620447;27;20122;-73
2021/07/26 20:27:27;;;;;;;10.27;6.00;;;;;;;24.30;90.27;95057.38;10581884;28;20043;-73
2021/07/26 20:32:28;;;;;;;10.17;6.07;;;;;;;23.91;93.08;95059.91;10567528;28;20026;-73
2021/07/26 20:37:28;;;;;;;11.47;5.97;;;;;;;23.85;94.66;95070.31;10566533;28;20090;-73
2021/07/26 20:42:29;;;;;;;10.77;5.75;;;;;;;23.69;95.88;95072.19;10566937;28;20066;-74
2021/07/26 20:47:30;;;;;;;8.00;5.87;;;;;;;23.51;96.62;95072.50;10576790;27;20023;-74
2021/07/26 20:52:31;;;;;;;6.70;5.57;;;;;;;23.51;93.30;95068.94;10556259;28;20639;-74
2021/07/26 20:57:32;;;;;;;10.90;5.60;;;;;;;23.47;92.19;95065.28;10574977;28;20026;-75
2021/07/26 21:02:33;;;;;;;8.30;5.95;;;;;;;23.49;88.96;95066.56;10574856;28;20416;-75
2021/07/26 21:07:33;;;;;;;14.52;6.05;;;;;;;23.58;87.61;95071.88;10587265;27;20027;-74
2021/07/26 21:12:34;;;;;;;6.47;5.07;;;;;;;23.63;86.15;95063.41;10602023;27;20197;-78
2021/07/26 21:17:34;;;;;;;7.82;5.28;;;;;;;23.66;84.28;95081.91;10605490;27;20273;-78
2021/07/26 21:22:36;;;;;;;13.27;6.73;;;;;;;23.65;86.33;95072.13;10589716;27;20493;-79
2021/07/26 21:27:37;;;;;;;9.02;5.72;;;;;;;23.51;89.69;95079.91;10619619;27;20399;-79
2021/07/26 21:32:38;;;;;;;8.13;5.45;;;;;;;23.38;91.91;95085.44;10619532;27;20027;-78
2021/07/26 21:37:38;;;;;;;9.05;6.05;;;;;;;23.27;92.69;95095.28;10574196;27;20035;-79
2021/07/26 21:42:41;;;;;;;11.18;5.72;;;;;;;23.17;92.42;95096.56;10547172;28;20132;-78
2021/07/26 21:47:43;;;;;;;14.30;5.70;;;;;;;23.19;89.90;95094.28;10576926;28;20027;-78
2021/07/26 21:52:43;;;;;;;7.75;5.03;;;;;;;23.21;87.36;95099.44;10579416;27;20039;-78
2021/07/26 21:57:44;;;;;;;7.77;5.17;;;;;;;23.27;85.08;95089.81;10587791;27;20055;-78
2021/07/26 22:02:44;;;;;;;11.87;5.57;;;;;;;23.32;83.64;95092.31;10569962;28;20387;-78
2021/07/26 22:07:45;;;;;;;7.00;4.83;;;;;;;23.40;83.82;95100.75;10528915;28;20032;-78
2021/07/26 22:12:46;;;;;;;8.52;4.57;;;;;;;23.31;85.62;95109.91;10530367;28;20023;-79
2021/07/26 22:17:46;;;;;;;10.57;5.70;;;;;;;23.34;84.79;95111.94;10533333;28;20023;-78
2021/07/26 22:22:46;;;;;;;21.37;5.83;;;;;;;23.19;86.38;95123.63;10573601;28;20765;-78
2021/07/26 22:27:47;;;;;;;9.17;5.70;;;;;;;23.23;87.90;95121.00;10573173;28;20127;-79
2021/07/26 22:32:47;;;;;;;6.90;5.03;;;;;;;23.17;88.27;95121.25;10570194;28;20027;-78
2021/07/26 22:37:48;;;;;;;6.73;5.10;;;;;;;23.01;89.56;95118.38;10568101;28;20034;-78
2021/07/26 22:42:48;;;;;;;8.35;6.07;;;;;;;22.91;89.08;95118.03;10567780;28;20020;-78
2021/07/26 22:47:49;;;;;;;9.38;5.35;;;;;;;22.90;89.14;95113.69;10572358;28;20115;-78
2021/07/26 22:52:49;;;;;;;10.40;5.63;;;;;;;22.77;90.14;95110.94;10552512;28;20019;-78
2021/07/26 22:57:49;;;;;;;7.88;5.05;;;;;;;22.80;89.71;95107.53;10571216;28;20164;-78
2021/07/26 23:02:51;;;;;;;12.27;5.50;;;;;;;22.87;88.55;95104.19;10571295;28;20035;-78
2021/07/26 23:07:51;;;;;;;15.63;5.82;;;;;;;22.73;91.12;95098.28;10572553;28;20027;-78
2021/07/26 23:12:51;;;;;;;9.33;5.47;;;;;;;22.75;91.21;95101.50;10572345;28;20024;-79
2021/07/26 23:17:52;;;;;;;9.30;5.20;;;;;;;22.67;92.38;95103.19;10571601;28;20023;-78